Terminal Aerodrome Forecast
Issued by NWS Charleston, WV

Current Version | Previous Version | Text Only | Print | Product List | Glossary Off
Versions: 1 2 3 4 5 6 7 8 9 10 11 12 13 14 15 16 17 18 19 20 21 22 23

000
FTUS41 KRLX 300813 AAB
TAFPKB
TAF AMD
KPKB 300813Z 3008/3106 00000KT P6SM SKC
     FM300900 00000KT 5SM BR SKC
     FM301000 00000KT 1SM BR SCT001
     FM301100 00000KT 1/4SM FG VV001
     FM301300 00000KT 1SM BR BKN001
     FM301400 VRB04KT P6SM SKC
     FM310000 00000KT P6SM SKC=

USA.gov is the U.S. government's official web portal to all federal, state and local government web resources and services.